Tiempo atmosférico en la estación meteorológica de Polinyà de Xúquer, València/Valencia (12 m.)



Fecha
DESCASC
Temp. máxima en grados centígrados (hora)
DESCASC
Temp. mínima en grados centígrados (hora)
DESCASC
Temp. media en grados centígrados
DESCASC
Racha de viento máxima en m/sg (hora)
DESCASC
Velocidad máxima media en intervalos de 10 minutos(hora)
DESCASC
Precipitaciones diarias en mm
DESCASC
Precipitaciones de 00:00 a 06:00 en mm
DESCASC
Precipitaciones de 06:00 a 12:00 en mm
DESCASC
Precipitaciones de 12:00 a 18:00 en mm
DESCASC
Precipitaciones de 18:00 a 24:00 en mm
DESCASC
01-01-2020 13 (15:20) 5.3 (00:00) 9.2 -- (--) -- (--) 0 0 0 0 0
03-01-2020 13.4 (14:40) 2.1 (00:00) 7.7 4.44 (14:40) 2.5 (14:40) 0 0 0 0 0
06-01-2020 14.1 (14:40) 4.8 (00:00) 9.5 4.72 (16:20) 3.06 (01:00) 0 0 0 0 0
02-01-2020 12.7 (15:10) 5 (00:00) 8.8 4.72 (11:50) 2.22 (11:20) 0 0 0 0 0
12-01-2020 13 (14:10) 2.2 (00:40) 7.6 5 (10:20) 2.5 (10:20) 0 0 0 0 0
31-12-2019 13.5 (15:10) 5.1 (00:00) 9.3 5 (09:40) 2.22 (10:20) 0 0 0 0 0
30-12-2019 14.1 (15:20) 5.4 (00:00) 9.8 5 (15:30) 1.67 (16:50) 0 0 0 0 0
11-01-2020 14.1 (14:40) 2.3 (00:00) 8.2 5.28 (10:20) 2.5 (10:50) 0 0 0 0 0
08-01-2020 12.7 (16:30) 2.6 (00:00) 7.6 5.28 (03:30) 2.78 (03:30) 0 0 0 0 0
28-12-2019 13 (15:30) 6 (00:00) 9.5 5.28 (06:40) 2.78 (06:50) 0 0 0 0 0
07-01-2020 14.4 (14:50) 3.4 (00:00) 8.9 5.83 (16:10) 2.78 (15:40) 0 0 0 0 0
19-12-2019 15.9 (22:40) 8.6 (04:10) 12.3 5.83 (02:10) 3.33 (02:40) 0 0 0 0 0
27-12-2019 16.5 (14:30) 6.8 (00:00) 11.7 6.11 (10:10) 2.78 (10:30) 0 0 0 0 0
25-12-2019 17.9 (14:40) 9.3 (00:00) 13.6 6.11 (10:10) 3.06 (08:50) 0 0 0 0 0
16-01-2020 16.8 (14:30) 7.4 (00:00) 12.1 6.11 (03:40) 3.06 (02:00) 0 0 0 0 0
09-01-2020 14.2 (15:00) 6.3 (00:00) 10.3 6.39 (10:00) 3.33 (10:20) 0 0 0 0 0
29-12-2019 13.6 (15:30) 7.7 (00:00) 10.7 6.67 (18:40) 3.06 (10:30) 0 0 0 0 0
04-01-2020 14.3 (15:10) 4.8 (00:00) 9.6 6.94 (03:40) 3.89 (05:10) 0 0 0 0 0
05-01-2020 16.4 (15:10) 6 (00:00) 11.2 6.94 (11:20) 3.61 (09:00) 0 0 0 0 0
26-12-2019 22.7 (14:50) 8.3 (00:00) 15.5 8.06 (12:30) 3.89 (12:20) 0 0 0 0 0
13-01-2020 16.6 (15:30) 4.2 (00:00) 10.4 8.33 (11:30) 3.89 (07:40) 0 0 0 0 0
14-01-2020 16.3 (15:30) 5.7 (00:00) 11 8.33 (04:20) 3.89 (05:50) 0 0 0 0 0
15-01-2020 17.6 (16:40) 7 (00:00) 12.3 9.17 (05:00) 4.72 (05:00) 0 0 0 0 0
17-01-2020 17.2 (15:10) 7.1 (00:00) 12.2 9.44 (11:50) 3.61 (11:40) 0 0 0 0 0
24-12-2019 22.3 (15:10) 12.2 (06:50) 17.2 10 (10:30) 4.72 (08:30) 0 0 0 0 0
10-01-2020 14.7 (13:30) 4.6 (00:00) 9.6 12.22 (16:20) 6.67 (16:50) 0 0 0 0 0
23-12-2019 20 (15:00) 12.1 (00:00) 16.1 12.22 (23:59) 3.89 (23:59) 0 0 0 0 0
20-12-2019 21.4 (11:30) 11.4 (00:00) 16.4 14.17 (09:10) 5.83 (21:50) 0 0 0 0 0
22-12-2019 20.6 (14:50) 15.7 (08:30) 18.2 15.28 (03:40) 3.33 (00:50) 0 0 0 0 0
21-12-2019 24.7 (14:50) 15.8 (08:20) 20.3 15.28 (22:40) 5 (14:30) 0 0 0 0 0

Gráficas

Temp. máximas Temp. mínimas Temp. medias Precipitaciones Rachas de viento máximas Velocidades máximas media en intervalos de 10 minutos

Datos horarios

Fecha y hora oficial Temperatura (ºC) Velocidad del viento (km/h) Dirección del viento Racha (km/h) Dirección de racha Precipitación (mm) Presión (hPa) Tendencia (hPa) Humedad (%)
2020-01-17 23:00:00 12.2 6 Sudoeste 17 Sudoeste 0 -- -- 47
2020-01-17 22:00:00 12.3 8 Sudoeste 16 Sudoeste 0 -- -- 46
2020-01-17 21:00:00 12.2 7 Sudoeste 14 Sudoeste 0 -- -- 46
2020-01-17 20:00:00 13.6 6 Sudoeste 17 Sudoeste 0 -- -- 43
2020-01-17 19:00:00 14.2 6 Sudoeste 14 Sudoeste 0 -- -- 41
2020-01-17 18:00:00 15 4 Sudoeste 10 Sudoeste 0 -- -- 41
2020-01-17 17:00:00 16.6 4 Sudoeste 18 Sudoeste 0 -- -- 39
2020-01-17 16:00:00 16.7 3 Oeste 15 Oeste 0 -- -- 38
2020-01-17 15:00:00 17.1 2 Oeste 22 Sudoeste 0 -- -- 39
2020-01-17 14:00:00 16.9 5 Sudoeste 27 Sudoeste 0 -- -- 38
2020-01-17 13:00:00 16.5 5 Sudoeste 32 Sudoeste 0 -- -- 38
2020-01-17 12:00:00 15.9 12 Sudoeste 34 Sudoeste 0 -- -- 38
2020-01-17 11:00:00 14.4 8 Sudoeste 23 Sudoeste 0 -- -- 39
2020-01-17 10:00:00 13.3 4 Sudoeste 27 Sudoeste 0 -- -- 40
2020-01-17 09:00:00 11.3 0 Calma 16 Sudoeste 0 -- -- 43
2020-01-17 08:00:00 10.1 6 Sudoeste 13 Sudoeste 0 -- -- 47
2020-01-17 07:00:00 8.6 4 Sudoeste 19 Sudoeste 0 -- -- 52
2020-01-17 06:00:00 9.2 8 Sudoeste 22 Sudoeste 0 -- -- 54
2020-01-17 05:00:00 7.8 0 Calma 17 Sudoeste 0 -- -- 60
2020-01-17 04:00:00 9.8 5 Sudoeste 17 Sudoeste 0 -- -- 55
2020-01-17 03:00:00 10.1 8 Sudoeste 16 Sudoeste 0 -- -- 58
2020-01-17 02:00:00 10.2 3 Sudoeste 16 Sudoeste 0 -- -- 58
2020-01-17 01:00:00 10 7 Sudoeste 14 Sudoeste 0 -- -- 65
2020-01-17 00:00:00 8 0 Calma 6 Noroeste 0 -- -- 76
2020-01-16 23:00:00 8.6 0 Calma 4 Sudoeste 0 -- -- 78
2020-01-16 22:00:00 8.8 0 Calma 8 Sudoeste 0 -- -- 78
2020-01-16 21:00:00 9.5 4 Sudoeste 9 Sudoeste 0 -- -- 78
2020-01-16 20:00:00 9.2 0 Calma 8 Sudeste 0 -- -- 75
2020-01-16 19:00:00 11.2 4 Este 15 Este 0 -- -- 73
2020-01-16 18:00:00 12.3 8 Este 19 Sudeste 0 -- -- 69
2020-01-16 17:00:00 14.2 10 Este 21 Este 0 -- -- 54
2020-01-16 16:00:00 15.2 10 Este 17 Este 0 -- -- 50
2020-01-16 15:00:00 16.4 7 Este 17 Este 0 -- -- 48
2020-01-16 14:00:00 16.4 2 Nordeste 8 Nordeste 0 -- -- 47
2020-01-16 13:00:00 15.3 0 Calma 11 Sudoeste 0 -- -- 48
2020-01-16 12:00:00 14.4 3 Sudoeste 14 Sudoeste 0 -- -- 51
2020-01-16 11:00:00 13 7 Sudoeste 16 Sudoeste 0 -- -- 55
2020-01-16 10:00:00 11.4 5 Sudoeste 17 Sudoeste 0 -- -- 60
2020-01-16 09:00:00 9.1 7 Sudoeste 15 Sudoeste 0 -- -- 63
2020-01-16 08:00:00 9.4 0 Calma 12 Sudoeste 0 -- -- 60
2020-01-16 07:00:00 10.5 4 Sudoeste 16 Sudoeste 0 -- -- 57
2020-01-16 06:00:00 11.1 7 Sudoeste 15 Sudoeste 0 -- -- 56
2020-01-16 05:00:00 11 8 Sudoeste 18 Sudoeste 0 -- -- 55
2020-01-16 04:00:00 10.9 9 Sudoeste 22 Sudoeste 0 -- -- 54
2020-01-16 03:00:00 11.2 9 Sudoeste 19 Sudoeste 0 -- -- 52
2020-01-16 02:00:00 12.1 11 Sudoeste 20 Sudoeste 0 -- -- 51
2020-01-16 01:00:00 11.8 9 Sudoeste 22 Sudoeste 0 -- -- 50
2020-01-16 00:00:00 11.8 8 Sudoeste 21 Sudoeste 0 -- -- 50
2020-01-15 23:00:00 12 10 Sudoeste 19 Sudoeste 0 -- -- 50
2020-01-15 22:00:00 12.3 6 Sudoeste 15 Sudoeste 0 -- -- 48
2020-01-15 21:00:00 12.8 6 Sudoeste 17 Sudoeste 0 -- -- 46
2020-01-15 20:00:00 14.1 7 Sudoeste 16 Sudoeste 0 -- -- 44
2020-01-15 19:00:00 14.1 6 Sudoeste 18 Sudoeste 0 -- -- 43
2020-01-15 18:00:00 15.4 6 Sudoeste 17 Sudoeste 0 -- -- 40
2020-01-15 17:00:00 17.4 7 Sudoeste 24 Sudoeste 0 -- -- 38
2020-01-15 16:00:00 17.3 8 Sudoeste 19 Sudoeste 0 -- -- 39
2020-01-15 15:00:00 16.4 3 Sudoeste 16 Sudoeste 0 -- -- 43
2020-01-15 14:00:00 16.1 3 Oeste 27 Sudoeste 0 -- -- 43
2020-01-15 13:00:00 14.8 12 Sudoeste 24 Sudoeste 0 -- -- 46
2020-01-15 12:00:00 12.8 9 Sudoeste 25 Sudoeste 0 -- -- 50
2020-01-15 11:00:00 11.1 14 Sudoeste 30 Sudoeste 0 -- -- 53
2020-01-15 10:00:00 9.3 12 Sudoeste 23 Sudoeste 0 -- -- 57
2020-01-15 09:00:00 7.9 9 Sudoeste 28 Sudoeste 0 -- -- 58
2020-01-15 08:00:00 7.7 12 Sudoeste 32 Sudoeste 0 -- -- 58
2020-01-15 07:00:00 7.7 12 Sudoeste 23 Sudoeste 0 -- -- 58
2020-01-15 06:00:00 7.5 8 Sudoeste 29 Sudoeste 0 -- -- 57
2020-01-15 05:00:00 8.1 17 Sudoeste 33 Sudoeste 0 -- -- 55
2020-01-15 04:00:00 8.5 11 Sudoeste 24 Sudoeste 0 -- -- 54
2020-01-15 03:00:00 8.8 12 Sudoeste 23 Sudoeste 0 -- -- 53
2020-01-15 02:00:00 8.8 10 Sudoeste 20 Oeste 0 -- -- 53
2020-01-15 01:00:00 8.6 8 Sudoeste 17 Sudoeste 0 -- -- 53
2020-01-15 00:00:00 7.8 3 Sudoeste 17 Sudoeste 0 -- -- 55
2020-01-14 23:00:00 8.5 5 Sudoeste 13 Sudoeste 0 -- -- 53
2020-01-14 22:00:00 9.6 6 Sudoeste 14 Sudoeste 0 -- -- 51
2020-01-14 21:00:00 9.9 8 Sudoeste 14 Sudoeste 0 -- -- 53
2020-01-14 20:00:00 6.3 0 Calma 7 Sudeste 0 -- -- 68
2020-01-14 19:00:00 8.7 0 Calma 12 Sudeste 0 -- -- 60
2020-01-14 18:00:00 11.1 5 Sudeste 18 Este 0 -- -- 51
2020-01-14 17:00:00 13.4 7 Sudeste 20 Este 0 -- -- 45
2020-01-14 16:00:00 14.8 6 Sudeste 18 Este 0 -- -- 38
2020-01-14 15:00:00 15.9 3 Sudoeste 18 Sur 0 -- -- 35
2020-01-14 14:00:00 15.3 4 Sudoeste 17 Sudoeste 0 -- -- 37
2020-01-14 13:00:00 14.4 5 Sudoeste 21 Sudoeste 0 -- -- 39
2020-01-14 12:00:00 13 10 Sudoeste 24 Sudoeste 0 -- -- 40
2020-01-14 11:00:00 10.9 10 Sudoeste 24 Sudoeste 0 -- -- 47
2020-01-14 10:00:00 9.1 13 Sudoeste 23 Sudoeste 0 -- -- 50
2020-01-14 09:00:00 7.9 9 Sudoeste 23 Sudoeste 0 -- -- 51
2020-01-14 08:00:00 7.3 12 Sudoeste 26 Sudoeste 0 -- -- 51
2020-01-14 07:00:00 8.4 10 Sudoeste 29 Sudoeste 0 -- -- 47
2020-01-14 06:00:00 8.9 13 Sudoeste 28 Sudoeste 0 -- -- 47
2020-01-14 05:00:00 9 10 Sudoeste 30 Sudoeste 0 -- -- 45
2020-01-14 04:00:00 9.8 13 Sudoeste 25 Sudoeste 0 -- -- 44
2020-01-14 03:00:00 9.7 11 Sudoeste 24 Sudoeste 0 -- -- 43
2020-01-14 02:00:00 9.7 8 Sudoeste 18 Sudoeste 0 -- -- 42
2020-01-14 01:00:00 11 10 Sudoeste 23 Sudoeste 0 -- -- 39
2020-01-14 00:00:00 11 12 Sudoeste 23 Sudoeste 0 -- -- 39
2020-01-13 23:00:00 11.2 10 Sudoeste 22 Sudoeste 0 -- -- 39
2020-01-13 22:00:00 11.4 6 Sudoeste 21 Sudoeste 0 -- -- 39
2020-01-13 21:00:00 12.4 10 Sudoeste 27 Sudoeste 0 -- -- 37
2020-01-13 20:00:00 11.9 10 Sudoeste 18 Sudoeste 0 -- -- 39
2020-01-13 19:00:00 12 8 Sudoeste 14 Sudoeste 0 -- -- 41
2020-01-13 18:00:00 11.4 0 Calma 7 Sudeste 0 -- -- 53
2020-01-13 17:00:00 14 0 Calma 10 Sudoeste 0 -- -- 41
2020-01-13 16:00:00 16.4 4 Sudoeste 14 Sudoeste 0 -- -- 30
2020-01-13 15:00:00 16.3 2 Oeste 21 Sudoeste 0 -- -- 31
2020-01-13 14:00:00 15.6 7 Sudoeste 23 Sudoeste 0 -- -- 31
2020-01-13 13:00:00 14 10 Sudoeste 23 Sudoeste 0 -- -- 34
2020-01-13 12:00:00 12.4 12 Sudoeste 30 Sudoeste 0 -- -- 36
2020-01-13 11:00:00 10.8 9 Sudoeste 25 Sudoeste 0 -- -- 40
2020-01-13 10:00:00 8.8 10 Sudoeste 21 Sudoeste 0 -- -- 46
2020-01-13 09:00:00 6.9 11 Sudoeste 22 Sudoeste 0 -- -- 51
2020-01-13 08:00:00 6 12 Sudoeste 26 Sudoeste 0 -- -- 54
2020-01-13 07:00:00 5.7 8 Sudoeste 16 Sudoeste 0 -- -- 58
2020-01-13 06:00:00 5.4 7 Sudoeste 19 Sudoeste 0 -- -- 60
2020-01-13 05:00:00 5.7 8 Sudoeste 16 Sudoeste 0 -- -- 60
2020-01-13 04:00:00 5.7 9 Sudoeste 13 Sudoeste 0 -- -- 64
2020-01-13 03:00:00 4.9 4 Sudoeste 17 Sudoeste 0 -- -- 65
2020-01-13 02:00:00 5.8 9 Sudoeste 17 Sudoeste 0 -- -- 64
2020-01-13 01:00:00 5.3 6 Sudoeste 14 Sudoeste 0 -- -- 65
2020-01-13 00:00:00 6 3 Sudoeste 13 Sudoeste 0 -- -- 68
2020-01-12 23:00:00 6.7 7 Sudoeste 15 Sudoeste 0 -- -- 75
2020-01-12 22:00:00 6 2 Sudoeste 12 Sudoeste 0 -- -- 78
2020-01-12 21:00:00 3.1 0 Calma 3 Sudoeste 0 -- -- 76
2020-01-12 20:00:00 5.2 0 Calma 5 Sudoeste 0 -- -- 75
2020-01-12 19:00:00 6.9 0 Calma 7 Sudeste 0 -- -- 72
2020-01-12 18:00:00 9.7 5 Este 11 Nordeste 0 -- -- 68
2020-01-12 17:00:00 12 7 Nordeste 11 Este 0 -- -- 48
2020-01-12 16:00:00 12.2 3 Nordeste 13 Nordeste 0 -- -- 46
2020-01-12 15:00:00 12.9 8 Nordeste 15 Norte 0 -- -- 42
2020-01-12 14:00:00 12.8 4 Nordeste 11 Nordeste 0 -- -- 36
2020-01-12 13:00:00 11.4 0 Calma 11 Sudoeste 0 -- -- 40
2020-01-12 12:00:00 10.6 2 Sudoeste 14 Sudoeste 0 -- -- 42
2020-01-12 11:00:00 9.7 5 Sudoeste 18 Sudoeste 0 -- -- 45
2020-01-12 10:00:00 7.5 5 Sudoeste 15 Sudoeste 0 -- -- 55
2020-01-12 09:00:00 5.7 7 Sudoeste 14 Sudoeste 0 -- -- 61
2020-01-12 08:00:00 3.4 2 Oeste 12 Sudoeste 0 -- -- 67
2020-01-12 07:00:00 4.8 3 Sudoeste 17 Sudoeste 0 -- -- 64
2020-01-12 06:00:00 3.8 5 Sudoeste 11 Sudoeste 0 -- -- 73
2020-01-12 05:00:00 4.1 4 Sudoeste 12 Oeste 0 -- -- 73
2020-01-12 04:00:00 2.9 0 Calma 5 Sudoeste 0 -- -- 75
2020-01-12 03:00:00 3.6 0 Calma 6 Sudoeste 0 -- -- 74
2020-01-12 02:00:00 5.5 4 Sudoeste 14 Sudoeste 0 -- -- 72
2020-01-12 01:00:00 4.1 3 Sudoeste 7 Sudoeste 0 -- -- 78
2020-01-12 00:00:00 3.2 2 Sudoeste 8 Sudoeste 0 -- -- 75
2020-01-11 23:00:00 5.9 0 Calma 13 Sudoeste 0 -- -- 70
2020-01-11 22:00:00 3.8 0 Calma 8 Sudoeste 0 -- -- 78
2020-01-11 21:00:00 5 0 Calma 3 Noroeste 0 -- -- 75
2020-01-11 20:00:00 6.9 0 Calma 7 Sudeste 0 -- -- 73
2020-01-11 19:00:00 8.8 3 Sudeste 9 Sudeste 0 -- -- 68
2020-01-11 18:00:00 10.6 4 Sudeste 13 Sudeste 0 -- -- 59
2020-01-11 17:00:00 13 6 Sudeste 15 Sudeste 0 -- -- 48
2020-01-11 16:00:00 13.5 4 Sudeste 13 Este 0 -- -- 44
2020-01-11 15:00:00 13.9 5 Este 10 Este 0 -- -- 41
2020-01-11 14:00:00 13.2 0 Calma 11 Sudoeste 0 -- -- 42
2020-01-11 13:00:00 12.8 4 Sudoeste 15 Sudoeste 0 -- -- 42
2020-01-11 12:00:00 11.8 8 Sudoeste 18 Sudoeste 0 -- -- 43
2020-01-11 11:00:00 9.8 8 Sudoeste 19 Sudoeste 0 -- -- 53
2020-01-11 10:00:00 7.3 4 Sudoeste 16 Sudoeste 0 -- -- 66
2020-01-11 09:00:00 4.9 4 Sudoeste 14 Sudoeste 0 -- -- 79
2020-01-11 08:00:00 2.4 0 Calma 5 Sudoeste 0 -- -- 78
2020-01-11 07:00:00 3.8 0 Calma 6 Sudoeste 0 -- -- 77
2020-01-11 06:00:00 5.1 0 Calma 12 Sudoeste 0 -- -- 72
2020-01-11 05:00:00 7 6 Sudoeste 14 Sudoeste 0 -- -- 71
2020-01-11 04:00:00 6.2 0 Calma 7 Sudoeste 0 -- -- 76
2020-01-11 03:00:00 5.3 0 Calma 9 Sudoeste 0 -- -- 73
2020-01-11 02:00:00 7.7 5 Sudoeste 12 Sudoeste 0 -- -- 63
2020-01-11 01:00:00 8.8 7 Sudoeste 14 Sudoeste 0 -- -- 63
2020-01-11 00:00:00 9.7 8 Sudoeste 10 Sudoeste 0 -- -- 63
2020-01-10 23:00:00 9.7 4 Sudoeste 7 Sudoeste 0 -- -- 62
2020-01-10 22:00:00 11.5 3 Norte 15 Este 0 -- -- 57
2020-01-10 21:00:00 11.4 8 Este 24 Este 0 -- -- 56
2020-01-10 20:00:00 11.8 18 Nordeste 33 Nordeste 0 -- -- 54
2020-01-10 19:00:00 12.4 18 Nordeste 31 Este 0 -- -- 53
2020-01-10 18:00:00 11.4 18 Nordeste 37 Nordeste 0 -- -- 58
2020-01-10 17:00:00 11.3 20 Nordeste 44 Nordeste 0 -- -- 63
2020-01-10 16:00:00 12.7 19 Nordeste 35 Nordeste 0 -- -- 50
2020-01-10 15:00:00 14.2 13 Nordeste 23 Nordeste 0 -- -- 41
2020-01-10 14:00:00 14 11 Nordeste 20 Norte 0 -- -- 41
2020-01-10 13:00:00 14.1 5 Norte 14 Norte 0 -- -- 42
2020-01-10 12:00:00 12.9 6 Sudoeste 17 Sudoeste 0 -- -- 53
2020-01-10 11:00:00 10.9 6 Sudoeste 16 Sudoeste 0 -- -- 60
2020-01-10 10:00:00 8.7 6 Sudoeste 14 Sudoeste 0 -- -- 69
2020-01-10 09:00:00 7.3 0 Calma -- -- 0 -- -- 76
2020-01-10 08:00:00 6.7 0 Calma -- -- 0 -- -- 75
2020-01-10 07:00:00 7.3 0 Calma -- -- 0 -- -- 75
2020-01-10 06:00:00 7.4 0 Calma -- -- 0 -- -- 81
2020-01-10 05:00:00 5.4 0 Calma -- -- 0 -- -- 81
2020-01-10 04:00:00 4.9 0 Calma -- -- 0 -- -- 80
2020-01-10 03:00:00 5.7 0 Calma -- -- 0 -- -- 80
2020-01-10 02:00:00 6.5 0 Calma -- -- 0 -- -- 79
2020-01-10 01:00:00 7.7 0 Calma -- -- 0 -- -- 78
2020-01-10 00:00:00 8.1 0 Calma 12 Sudoeste 0 -- -- 81
2020-01-09 23:00:00 7.1 0 Calma -- -- 0 -- -- 81
2020-01-09 22:00:00 8.2 0 Calma -- -- 0 -- -- 81
2020-01-09 21:00:00 7.3 0 Calma 8 Sudoeste 0 -- -- 79
2020-01-09 20:00:00 8.3 0 Calma 10 Sudeste 0 -- -- 78
2020-01-09 19:00:00 10 4 Sudeste 18 Este 0 -- -- 76
2020-01-09 18:00:00 11 9 Este 21 Sudeste 0 -- -- 72
2020-01-09 17:00:00 12.5 9 Este 19 Este 0 -- -- 63
2020-01-09 16:00:00 13.5 7 Sudeste 16 Este 0 -- -- 56
2020-01-09 15:00:00 14.1 3 Este 12 Este 0 -- -- 53
2020-01-09 14:00:00 13.5 0 Calma 10 Sudoeste 0 -- -- 54
2020-01-09 13:00:00 13 5 Sudoeste 17 Sudoeste 0 -- -- 54
2020-01-09 12:00:00 11.9 7 Sudoeste 22 Sudoeste 0 -- -- 56
2020-01-09 11:00:00 10.1 9 Sudoeste 22 Sudoeste 0 -- -- 62
2020-01-09 10:00:00 8.2 10 Sudoeste 23 Sudoeste 0 -- -- 70
2020-01-09 09:00:00 6.4 0 Calma 18 Sudoeste 0 -- -- 77
2020-01-09 08:00:00 6.4 0 Calma 12 Sudoeste 0 -- -- 81
2020-01-09 07:00:00 7.3 0 Calma 17 Sudoeste 0 -- -- 81
2020-01-09 06:00:00 6.5 0 Calma 15 Sudoeste 0 -- -- 81
2020-01-09 05:00:00 7.1 3 Sudoeste 18 Sudoeste 0 -- -- 82
2020-01-09 04:00:00 6.9 0 Calma 5 Oeste 0 -- -- 82
2020-01-09 03:00:00 7 0 Calma -- -- 0 -- -- 82
2020-01-09 02:00:00 7.5 0 Calma -- -- 0 -- -- 82
2020-01-09 01:00:00 8.2 0 Calma 12 Sudoeste 0 -- -- 82
2020-01-09 00:00:00 8.5 4 Sudoeste 16 Sudoeste 0 -- -- 82
2020-01-08 23:00:00 8.2 6 Sudoeste 13 Sudoeste 0 -- -- 82
2020-01-08 22:00:00 8.6 6 Sudoeste 13 Sudoeste 0 -- -- 82
2020-01-08 21:00:00 5.8 0 Calma 6 Sudoeste 0 -- -- 80
2020-01-08 20:00:00 8 4 Sudoeste 7 Sudoeste 0 -- -- 80
2020-01-08 19:00:00 9.2 4 Sudoeste 7 Sudoeste 0 -- -- 78
2020-01-08 18:00:00 10.4 0 Calma 4 Este 0 -- -- 74
2020-01-08 17:00:00 12 2 Nordeste 8 Norte 0 -- -- 71
2020-01-08 16:00:00 12.4 0 Calma 7 Sudoeste 0 -- -- 72
2020-01-08 15:00:00 11.9 3 Sudoeste 7 Sudoeste 0 -- -- 73
2020-01-08 14:00:00 11.5 0 Calma 5 Norte 0 -- -- 73
2020-01-08 13:00:00 11.3 0 Calma 7 Noroeste 0 -- -- 70
2020-01-08 12:00:00 11.1 0 Calma 10 Sudoeste 0 -- -- 63
2020-01-08 11:00:00 9.2 5 Sudoeste 15 Sudoeste 0 -- -- 56
2020-01-08 10:00:00 5.3 0 Calma -- -- 0 -- -- 78
2020-01-08 09:00:00 4.1 0 Calma 11 Sudoeste 0 -- -- 78
2020-01-08 08:00:00 3.2 4 Sudoeste 9 Sudoeste 0 -- -- 80
2020-01-08 07:00:00 2.8 0 Calma 5 Sudoeste 0 -- -- 78
2020-01-08 06:00:00 3.7 0 Calma 6 Este 0 -- -- 75
2020-01-08 05:00:00 6.1 0 Calma 16 Sur 0 -- -- 67
2020-01-08 04:00:00 7.7 3 Sudoeste 19 Sudoeste 0 -- -- 66
2020-01-08 03:00:00 6.9 4 Sudoeste 12 Sudoeste 0 -- -- 76
2020-01-08 02:00:00 6.1 3 Sudoeste 9 Sudoeste 0 -- -- 80
2020-01-08 01:00:00 6.8 4 Sudoeste 12 Sudoeste 0 -- -- 80
2020-01-08 00:00:00 5.9 2 Sudoeste 10 Sur 0 -- -- 81
2020-01-07 23:00:00 8.6 4 Sudoeste 13 Sudoeste 0 -- -- 81
2020-01-07 22:00:00 8.3 7 Sudoeste 14 Sudoeste 0 -- -- 81
2020-01-07 21:00:00 8.5 8 Sudoeste 11 Sudoeste 0 -- -- 81
2020-01-07 20:00:00 8.2 0 Calma 5 Noroeste 0 -- -- 78
2020-01-07 19:00:00 9 3 Nordeste 6 Este 0 -- -- 76
2020-01-07 18:00:00 11 5 Este 18 Sudeste 0 -- -- 75
2020-01-07 17:00:00 12.6 9 Este 21 Sudeste 0 -- -- 64
2020-01-07 16:00:00 13.3 8 Este 19 Este 0 -- -- 59
2020-01-07 15:00:00 14.1 7 Este 14 Este 0 -- -- 57
2020-01-07 14:00:00 13.9 0 Calma 13 Sudoeste 0 -- -- 50
2020-01-07 13:00:00 12.9 5 Sudoeste 13 Sudoeste 0 -- -- 48
2020-01-07 12:00:00 11.2 3 Sudoeste 15 Sudoeste 0 -- -- 53
2020-01-07 11:00:00 9.6 5 Sudoeste 14 Sudoeste 0 -- -- 62
2020-01-07 10:00:00 8 7 Sudoeste 15 Sudoeste 0 -- -- 69
2020-01-07 09:00:00 6.2 4 Sudoeste 11 Sudoeste 0 -- -- 78
2020-01-07 08:00:00 5.5 5 Sudoeste 13 Sudoeste 0 -- -- 80
2020-01-07 07:00:00 5.1 4 Sudoeste 13 Sudoeste 0 -- -- 81
2020-01-07 06:00:00 4 0 Calma 0 Calma 0 -- -- 81
2020-01-07 05:00:00 4.1 0 Calma -- -- 0 -- -- 81
2020-01-07 04:00:00 5.8 2 Sudoeste 10 Sudoeste 0 -- -- 81
2020-01-07 03:00:00 6.4 5 Sudoeste 11 Sudoeste 0 -- -- 81
2020-01-07 02:00:00 7 4 Sudoeste 9 Sudoeste 0 -- -- 82
2020-01-07 01:00:00 7 4 Sudoeste 10 Sudoeste 0 -- -- 83
2020-01-07 00:00:00 4.8 2 Sudoeste 6 Sudoeste 0 -- -- 82
2020-01-06 23:00:00 5.7 3 Sudoeste 11 Sudoeste 0 -- -- 82
2020-01-06 22:00:00 5.2 0 Calma 8 Sudoeste 0 -- -- 80
2020-01-06 21:00:00 6.9 0 Calma 7 Sudoeste 0 -- -- 78
2020-01-06 20:00:00 7.8 2 Norte 4 Este 0 -- -- 77
2020-01-06 19:00:00 8.7 4 Este 10 Este 0 -- -- 76
2020-01-06 18:00:00 10.1 6 Este 15 Este 0 -- -- 70
2020-01-06 17:00:00 12.4 10 Este 17 Este 0 -- -- 60
2020-01-06 16:00:00 13.1 8 Este 15 Este 0 -- -- 56
2020-01-06 15:00:00 14 8 Nordeste 15 Este 0 -- -- 55
2020-01-06 14:00:00 13.6 0 Calma 12 Sudoeste 0 -- -- 55
2020-01-06 13:00:00 12.9 4 Sudoeste 14 Sudoeste 0 -- -- 57
2020-01-06 12:00:00 12 6 Sudoeste 17 Sudoeste 0 -- -- 60
2020-01-06 11:00:00 11.3 6 Sudoeste 16 Oeste 0 -- -- 63
2020-01-06 10:00:00 10 5 Sudoeste 10 Sudoeste 0 -- -- 71